Time;durP1;ratioP1;P1;durP2;ratioP2;P2;SDS_P1;SDS_P2;PMS_P1;PMS_P2;Temp;Humidity;BMP_temperature;BMP_pressure;BME280_temperature;BME280_humidity;BME280_pressure;Samples;Min_cycle;Max_cycle;Signal;HPM_P1;HPM_P2
2023/01/13 00:02:15;;;;;;;28.52;4.78;;;9.70;99.90;;;;;;4902601;29;20113;-92
2023/01/13 00:04:41;;;;;;;26.08;5.05;;;9.60;99.90;;;;;;4903575;29;20049;-93
2023/01/13 00:07:06;;;;;;;26.00;4.80;;;9.60;99.90;;;;;;4904058;29;20143;-91
2023/01/13 00:09:32;;;;;;;29.63;5.18;;;9.60;99.90;;;;;;4898786;29;20041;-93
2023/01/13 00:11:58;;;;;;;31.33;5.18;;;9.50;99.90;;;;;;4885715;29;20051;-92
2023/01/13 00:14:25;;;;;;;27.48;4.72;;;9.50;99.90;;;;;;4884069;29;20056;-93
2023/01/13 00:16:51;;;;;;;32.38;5.72;;;9.50;99.90;;;;;;4884450;29;20101;-92
2023/01/13 00:19:16;;;;;;;27.20;4.95;;;9.40;99.90;;;;;;4885539;29;20041;-92
2023/01/13 00:21:42;;;;;;;36.22;5.82;;;9.40;99.90;;;;;;4884628;29;20053;-93
2023/01/13 00:24:09;;;;;;;32.83;4.93;;;9.40;99.90;;;;;;4885062;29;20098;-93
2023/01/13 00:26:35;;;;;;;31.17;5.25;;;9.40;99.90;;;;;;4884574;29;20048;-92
2023/01/13 00:29:01;;;;;;;28.40;4.72;;;9.30;99.90;;;;;;4884396;29;20123;-93
2023/01/13 00:31:28;;;;;;;28.30;4.93;;;9.30;99.90;;;;;;4885269;29;20358;-92
2023/01/13 00:33:58;;;;;;;36.00;5.93;;;9.30;99.90;;;;;;4885951;29;20055;-92
2023/01/13 00:36:24;;;;;;;32.08;5.97;;;9.20;99.90;;;;;;4884346;29;20398;-93
2023/01/13 00:38:49;;;;;;;31.63;5.60;;;9.20;99.90;;;;;;4902582;29;20044;-93
2023/01/13 00:41:17;;;;;;;40.47;5.82;;;9.20;99.90;;;;;;4902697;29;20044;-92
2023/01/13 00:43:43;;;;;;;34.05;5.90;;;9.20;99.90;;;;;;4903406;29;20053;-92
2023/01/13 00:46:11;;;;;;;35.00;6.90;;;9.10;99.90;;;;;;4902287;29;20428;-92
2023/01/13 00:48:39;;;;;;;32.97;5.72;;;9.10;99.90;;;;;;4902689;29;20417;-92
2023/01/13 00:51:11;;;;;;;37.13;5.95;;;9.00;99.90;;;;;;4903469;29;20095;-93
2023/01/13 00:53:39;;;;;;;36.28;6.05;;;9.00;99.90;;;;;;4902798;29;20040;-92
2023/01/13 00:56:13;;;;;;;34.53;6.30;;;9.00;99.90;;;;;;4903024;29;20077;-92
2023/01/13 00:58:40;;;;;;;36.72;6.00;;;8.90;99.90;;;;;;4887468;29;20056;-92
2023/01/13 01:01:08;;;;;;;38.70;6.25;;;8.90;99.90;;;;;;4883514;29;20049;-92
2023/01/13 01:03:34;;;;;;;39.03;6.25;;;8.90;99.90;;;;;;4881742;29;20045;-92
2023/01/13 01:06:06;;;;;;;41.13;6.80;;;8.90;99.90;;;;;;4880610;29;20489;-91
2023/01/13 01:08:33;;;;;;;39.83;6.32;;;8.90;99.90;;;;;;4881145;29;20097;-92
2023/01/13 01:11:07;;;;;;;36.97;6.57;;;8.80;99.90;;;;;;4882488;29;20711;-93
2023/01/13 01:13:34;;;;;;;36.85;6.38;;;8.80;99.90;;;;;;4880791;29;20132;-92
2023/01/13 01:16:13;;;;;;;32.83;6.35;;;8.80;99.90;;;;;;4880927;29;20045;-91
2023/01/13 01:18:42;;;;;;;34.17;6.30;;;8.80;99.90;;;;;;4872896;29;20053;-90
2023/01/13 01:21:09;;;;;;;33.42;6.03;;;8.80;99.90;;;;;;4880541;29;20044;-91
2023/01/13 01:23:36;;;;;;;39.30;6.80;;;8.80;99.90;;;;;;4881770;29;20510;-91
2023/01/13 01:26:03;;;;;;;39.85;5.72;;;8.80;99.90;;;;;;4880324;29;20542;-92
2023/01/13 01:28:29;;;;;;;41.53;6.63;;;8.70;99.90;;;;;;4879937;29;20045;-92
2023/01/13 01:30:57;;;;;;;34.42;6.30;;;8.70;99.90;;;;;;4880772;29;20455;-92
2023/01/13 01:33:23;;;;;;;31.80;5.55;;;8.70;99.90;;;;;;4879992;29;20082;-92
2023/01/13 01:35:48;;;;;;;28.75;6.05;;;8.70;99.90;;;;;;4895732;29;20041;-91
2023/01/13 01:38:14;;;;;;;38.38;5.88;;;8.70;99.90;;;;;;4900044;29;20041;-91
2023/01/13 01:40:39;;;;;;;30.80;6.15;;;8.60;99.90;;;;;;4880256;29;20143;-92
2023/01/13 01:45:59;;;;;;;31.45;5.43;;;8.70;99.90;;;;;;4880118;29;20052;-92
2023/01/13 01:48:27;;;;;;;32.88;5.25;;;8.70;99.90;;;;;;4880188;29;20045;-91
2023/01/13 01:50:53;;;;;;;37.38;6.07;;;8.60;99.90;;;;;;4880690;29;20057;-92
2023/01/13 01:53:21;;;;;;;35.28;5.45;;;8.60;99.90;;;;;;4881196;29;20049;-92
2023/01/13 01:55:47;;;;;;;33.40;5.53;;;8.60;99.90;;;;;;4879366;29;20053;-91
2023/01/13 01:58:28;;;;;;;33.88;5.18;;;8.60;99.90;;;;;;4881347;29;20041;-92
2023/01/13 02:00:54;;;;;;;34.20;5.53;;;8.60;99.90;;;;;;4880952;29;20045;-92
2023/01/13 02:03:20;;;;;;;33.95;5.03;;;8.50;99.90;;;;;;4881505;29;20513;-92
2023/01/13 02:05:46;;;;;;;28.58;5.35;;;8.50;99.90;;;;;;4881355;29;20132;-92
2023/01/13 02:08:13;;;;;;;33.63;5.20;;;8.50;99.90;;;;;;4880487;29;20044;-92
2023/01/13 02:10:40;;;;;;;35.55;5.15;;;8.50;99.90;;;;;;4879693;29;20045;-93
2023/01/13 02:13:10;;;;;;;38.35;5.47;;;8.50;99.90;;;;;;4879615;29;20056;-92
2023/01/13 02:16:10;;;;;;;32.67;5.30;;;8.50;99.90;;;;;;4879903;29;20088;-93
2023/01/13 02:18:48;;;;;;;39.38;6.03;;;8.50;99.90;;;;;;4880930;29;20064;-91
2023/01/13 02:21:25;;;;;;;30.20;4.85;;;8.50;99.90;;;;;;4881046;29;20041;-92
2023/01/13 02:27:29;;;;;;;33.70;5.63;;;8.50;99.90;;;;;;4879427;29;20057;-92
2023/01/13 02:33:26;;;;;;;35.67;6.13;;;8.50;99.90;;;;;;4881085;29;20053;-92
2023/01/13 02:36:17;;;;;;;32.67;5.28;;;8.50;99.90;;;;;;4880597;29;20041;-92
2023/01/13 02:38:56;;;;;;;38.17;5.65;;;8.50;99.90;;;;;;4889945;29;20097;-92
2023/01/13 02:44:19;;;;;;;36.03;5.85;;;8.50;99.90;;;;;;4879631;29;20056;-92
2023/01/13 02:47:12;;;;;;;33.92;5.70;;;8.50;99.90;;;;;;4879731;29;20064;-92
2023/01/13 02:49:43;;;;;;;32.38;5.68;;;8.50;99.90;;;;;;4873895;29;20068;-93
2023/01/13 02:52:42;;;;;;;32.25;5.18;;;8.40;99.90;;;;;;4878296;29;20401;-92
2023/01/13 02:55:37;;;;;;;35.30;5.07;;;8.40;99.90;;;;;;4880424;29;20127;-92
2023/01/13 02:58:06;;;;;;;33.40;5.13;;;8.40;99.90;;;;;;4881700;29;20045;-92
2023/01/13 03:00:34;;;;;;;32.53;4.88;;;8.40;99.90;;;;;;4899098;29;20131;-92
2023/01/13 03:03:00;;;;;;;30.85;5.13;;;8.40;99.90;;;;;;4897949;29;20095;-92
2023/01/13 03:05:26;;;;;;;32.85;5.25;;;8.40;99.90;;;;;;4888246;29;20060;-92
2023/01/13 03:08:32;;;;;;;32.22;5.10;;;8.40;99.90;;;;;;4880270;29;20049;-92
2023/01/13 03:11:08;;;;;;;26.17;4.60;;;8.40;99.90;;;;;;4878857;29;20415;-92
2023/01/13 03:14:00;;;;;;;27.80;5.50;;;8.40;99.90;;;;;;4877909;29;20483;-92
2023/01/13 03:16:32;;;;;;;34.72;5.28;;;8.40;99.90;;;;;;4879755;29;20049;-91
2023/01/13 03:19:29;;;;;;;29.98;4.88;;;8.40;99.90;;;;;;4879805;29;20049;-92
2023/01/13 03:22:09;;;;;;;31.50;4.82;;;8.40;99.90;;;;;;4879711;29;20128;-92
2023/01/13 03:24:40;;;;;;;30.17;5.53;;;8.40;99.90;;;;;;4879676;29;20457;-93
2023/01/13 03:27:20;;;;;;;30.65;5.38;;;8.40;99.90;;;;;;4878226;29;20060;-92
2023/01/13 03:29:50;;;;;;;28.80;4.95;;;8.40;99.90;;;;;;4878919;29;20041;-92
2023/01/13 03:32:41;;;;;;;40.30;6.55;;;8.40;99.90;;;;;;4878303;29;20101;-90
2023/01/13 03:35:30;;;;;;;34.00;5.45;;;8.40;99.90;;;;;;4883898;29;20135;-92
2023/01/13 03:38:03;;;;;;;31.95;5.25;;;8.40;99.90;;;;;;4882569;29;20566;-92
2023/01/13 03:40:32;;;;;;;;;;;8.40;99.90;;;;;;4898163;29;20048;-92
2023/01/13 03:45:58;;;;;;;32.35;5.13;;;8.30;99.90;;;;;;4897132;29;20052;-92
2023/01/13 03:48:26;;;;;;;35.58;5.43;;;8.30;99.90;;;;;;4896360;29;20041;-92
2023/01/13 03:50:58;;;;;;;30.40;5.18;;;8.30;99.90;;;;;;4896971;29;20131;-93
2023/01/13 03:53:29;;;;;;;35.65;5.75;;;8.30;99.90;;;;;;4896466;29;20144;-91
2023/01/13 03:56:00;;;;;;;36.17;5.60;;;8.30;99.90;;;;;;4898232;29;20052;-92
2023/01/13 03:58:31;;;;;;;35.08;6.25;;;8.30;99.90;;;;;;4898245;29;20052;-93
2023/01/13 04:01:14;;;;;;;31.48;5.65;;;8.30;99.90;;;;;;4897802;29;20085;-91
2023/01/13 04:03:51;;;;;;;33.05;5.60;;;8.30;99.90;;;;;;4898287;29;20045;-90
2023/01/13 04:06:27;;;;;;;32.28;5.97;;;8.20;99.90;;;;;;4882172;29;20474;-89
2023/01/13 04:09:20;;;;;;;33.53;5.75;;;8.20;99.90;;;;;;4878291;29;20049;-90
2023/01/13 04:11:55;;;;;;;33.28;5.13;;;8.30;99.90;;;;;;4850561;29;20147;-90
2023/01/13 04:14:23;;;;;;;38.92;5.95;;;8.30;99.90;;;;;;4878126;29;20052;-89
2023/01/13 04:16:49;;;;;;;34.20;5.00;;;8.30;99.90;;;;;;4877670;29;20096;-90
2023/01/13 04:19:14;;;;;;;36.22;5.70;;;8.20;99.90;;;;;;4877876;29;20045;-90
2023/01/13 04:21:40;;;;;;;34.28;5.40;;;8.20;99.90;;;;;;4877652;29;20450;-91
2023/01/13 04:24:07;;;;;;;33.55;5.22;;;8.20;99.90;;;;;;4878791;29;20041;-90
2023/01/13 04:26:33;;;;;;;37.58;5.60;;;8.20;99.90;;;;;;4877802;29;20053;-90
2023/01/13 04:28:58;;;;;;;36.63;5.20;;;8.20;99.90;;;;;;4877911;29;20061;-89
2023/01/13 04:31:24;;;;;;;29.98;5.10;;;8.20;99.90;;;;;;4878174;29;20057;-89
2023/01/13 04:33:50;;;;;;;38.53;5.78;;;8.20;99.90;;;;;;4885483;29;20052;-90
2023/01/13 04:36:15;;;;;;;35.80;5.57;;;8.20;99.90;;;;;;4882286;29;20067;-89
2023/01/13 04:38:41;;;;;;;34.22;5.47;;;8.20;99.90;;;;;;4881521;29;20056;-89
2023/01/13 04:41:07;;;;;;;41.72;6.47;;;8.20;99.90;;;;;;4882542;29;20076;-90
2023/01/13 04:43:32;;;;;;;33.63;5.25;;;8.20;99.90;;;;;;4880391;29;20041;-90
2023/01/13 04:45:58;;;;;;;37.70;5.10;;;8.20;99.90;;;;;;4864288;29;20097;-91
2023/01/13 04:48:24;;;;;;;41.28;6.45;;;8.10;99.90;;;;;;4847418;29;20450;-91
2023/01/13 04:50:49;;;;;;;38.78;5.68;;;8.20;99.90;;;;;;4856282;29;20479;-90
2023/01/13 04:53:15;;;;;;;35.28;5.82;;;8.10;99.90;;;;;;4847410;29;20041;-90
2023/01/13 04:55:40;;;;;;;33.83;5.38;;;8.10;99.90;;;;;;4863900;29;20045;-90
2023/01/13 04:58:08;;;;;;;41.83;5.90;;;8.10;99.90;;;;;;4847059;29;20064;-90
2023/01/13 05:00:35;;;;;;;38.20;6.45;;;8.10;99.90;;;;;;4863972;29;20050;-92
2023/01/13 05:03:01;;;;;;;40.42;6.45;;;8.10;99.90;;;;;;4863758;29;20165;-89
2023/01/13 05:05:28;;;;;;;41.30;5.90;;;8.10;99.90;;;;;;4863283;29;20463;-90
2023/01/13 05:07:54;;;;;;;35.78;6.05;;;8.10;99.90;;;;;;4863734;29;20515;-90
2023/01/13 05:10:19;;;;;;;36.47;5.75;;;8.10;99.90;;;;;;4863471;29;20077;-90
2023/01/13 05:18:14;;;;;;;32.25;5.53;;;8.10;99.90;;;;;;4846197;29;20483;-91
2023/01/13 05:20:40;;;;;;;31.13;5.07;;;8.20;99.90;;;;;;4863536;29;20046;-91
2023/01/13 05:25:49;;;;;;;37.17;5.28;;;8.20;99.90;;;;;;4863170;29;20045;-90
2023/01/13 05:28:15;;;;;;;39.33;6.03;;;8.20;99.90;;;;;;4863063;29;20054;-90
2023/01/13 05:30:44;;;;;;;27.30;5.05;;;8.20;99.90;;;;;;4846869;29;20046;-91
2023/01/13 05:33:16;;;;;;;33.63;5.22;;;8.20;99.90;;;;;;4863043;29;20052;-90
2023/01/13 05:35:44;;;;;;;34.53;5.45;;;8.20;99.90;;;;;;4846743;29;20124;-90
2023/01/13 05:38:10;;;;;;;32.15;5.60;;;8.20;99.90;;;;;;4846781;29;20099;-91
2023/01/13 05:43:26;;;;;;;32.90;5.57;;;8.20;99.90;;;;;;4862822;29;20046;-90
2023/01/13 05:45:55;;;;;;;32.33;5.15;;;8.20;99.90;;;;;;4846448;29;20053;-91
2023/01/13 05:48:22;;;;;;;32.65;4.68;;;8.20;99.90;;;;;;4846120;29;20081;-90
2023/01/13 05:50:49;;;;;;;29.90;5.45;;;8.20;99.90;;;;;;4863304;29;20394;-91
2023/01/13 05:53:16;;;;;;;37.35;5.15;;;8.10;99.90;;;;;;4862757;29;20053;-90
2023/01/13 05:55:42;;;;;;;31.85;4.80;;;8.10;99.90;;;;;;4862962;29;20057;-92
2023/01/13 05:58:10;;;;;;;27.60;5.03;;;8.20;99.90;;;;;;4846282;29;20053;-91
2023/01/13 06:00:36;;;;;;;27.77;4.55;;;8.10;99.90;;;;;;4846442;29;20053;-91
2023/01/13 06:03:01;;;;;;;30.95;4.72;;;8.10;99.90;;;;;;4846367;29;20049;-91
2023/01/13 06:05:27;;;;;;;32.38;5.00;;;8.10;99.90;;;;;;4847118;29;20049;-92
2023/01/13 06:07:57;;;;;;;34.35;4.65;;;8.10;99.90;;;;;;4845904;29;20129;-90
2023/01/13 06:10:24;;;;;;;24.95;3.97;;;8.10;99.90;;;;;;4862789;29;20049;-91
2023/01/13 06:13:24;;;;;;;25.80;4.45;;;8.10;99.90;;;;;;4846470;29;20060;-92
2023/01/13 06:16:08;;;;;;;24.05;3.95;;;8.10;99.90;;;;;;4843713;29;20098;-90
2023/01/13 06:18:36;;;;;;;27.40;4.90;;;8.10;99.90;;;;;;4862878;29;20049;-90
2023/01/13 06:21:03;;;;;;;26.88;4.93;;;8.10;99.90;;;;;;4872125;29;20044;-90
2023/01/13 06:23:33;;;;;;;27.10;4.22;;;8.10;99.90;;;;;;4881100;29;20124;-90
2023/01/13 06:26:07;;;;;;;29.05;4.25;;;8.10;99.90;;;;;;4864383;29;20045;-90
2023/01/13 06:28:33;;;;;;;;;;;8.10;99.90;;;;;;4881056;29;20059;-91
2023/01/13 06:31:04;;;;;;;27.30;4.07;;;8.10;99.90;;;;;;4880718;29;19970;-90
2023/01/13 06:33:35;;;;;;;22.50;4.00;;;8.10;99.90;;;;;;4880762;29;20041;-90
2023/01/13 06:36:06;;;;;;;19.10;3.60;;;8.10;99.90;;;;;;4869311;29;20049;-89
2023/01/13 06:38:36;;;;;;;20.63;3.25;;;8.10;99.90;;;;;;4845529;29;20045;-89
2023/01/13 06:41:02;;;;;;;23.83;3.58;;;8.10;99.90;;;;;;4845279;29;20561;-89
2023/01/13 06:43:28;;;;;;;23.52;3.30;;;8.10;99.90;;;;;;4861443;29;20046;-92
2023/01/13 06:45:55;;;;;;;27.85;4.35;;;8.10;99.90;;;;;;4862227;29;20060;-91
2023/01/13 06:48:27;;;;;;;20.80;3.20;;;8.20;99.90;;;;;;4854940;29;20508;-90
2023/01/13 06:50:52;;;;;;;24.10;3.63;;;8.20;99.90;;;;;;4863566;29;20045;-92
2023/01/13 06:53:19;;;;;;;21.92;3.45;;;8.20;99.90;;;;;;4864130;29;20049;-92
2023/01/13 06:55:45;;;;;;;24.75;4.28;;;8.20;99.90;;;;;;4864236;29;20052;-91
2023/01/13 06:58:10;;;;;;;24.15;3.95;;;8.20;99.90;;;;;;4863702;29;20053;-91
2023/01/13 07:00:36;;;;;;;21.98;3.35;;;8.20;99.90;;;;;;4863839;29;20052;-92
2023/01/13 07:03:05;;;;;;;16.25;3.03;;;8.20;99.90;;;;;;4879240;29;20049;-91
2023/01/13 07:05:31;;;;;;;17.83;3.50;;;8.20;99.90;;;;;;4856772;29;20045;-93
2023/01/13 07:08:00;;;;;;;22.92;3.50;;;8.20;99.90;;;;;;4845609;29;20149;-93
2023/01/13 07:10:25;;;;;;;21.20;3.45;;;8.10;99.90;;;;;;4845251;29;20045;-91
2023/01/13 07:15:35;;;;;;;23.65;3.65;;;8.10;99.90;;;;;;4861958;29;20478;-92
2023/01/13 07:18:04;;;;;;;23.55;3.83;;;8.10;99.90;;;;;;4880480;29;20041;-91
2023/01/13 07:20:29;;;;;;;19.30;3.80;;;8.10;99.90;;;;;;4880166;29;20045;-91
2023/01/13 07:22:56;;;;;;;27.88;3.78;;;8.10;99.90;;;;;;4861586;29;20048;-90
2023/01/13 07:25:22;;;;;;;21.77;3.47;;;8.10;99.90;;;;;;4861581;29;20049;-91
2023/01/13 07:27:48;;;;;;;22.70;3.65;;;8.00;99.90;;;;;;4861622;29;20045;-90
2023/01/13 07:30:13;;;;;;;23.52;3.70;;;8.00;99.90;;;;;;4844562;29;20053;-91
2023/01/13 07:32:39;;;;;;;20.15;3.35;;;8.00;99.90;;;;;;4861894;29;20041;-91
2023/01/13 07:35:05;;;;;;;19.17;3.70;;;8.00;99.90;;;;;;4864642;29;20037;-90
2023/01/13 07:37:37;;;;;;;21.38;3.42;;;8.00;99.90;;;;;;4858023;29;20124;-91
2023/01/13 07:40:04;;;;;;;23.77;3.80;;;8.00;99.90;;;;;;4871902;29;20470;-90
2023/01/13 07:45:13;;;;;;;27.42;3.65;;;8.00;99.90;;;;;;4890089;29;20146;-89
2023/01/13 07:47:39;;;;;;;28.98;4.30;;;7.90;99.90;;;;;;4899412;29;20487;-91
2023/01/13 07:50:05;;;;;;;22.42;3.95;;;7.90;99.90;;;;;;4917494;29;20401;-91
2023/01/13 07:52:31;;;;;;;21.83;3.97;;;7.90;99.90;;;;;;4916740;29;20088;-91
2023/01/13 07:54:56;;;;;;;22.90;3.88;;;7.90;99.90;;;;;;4895552;29;20079;-91
2023/01/13 07:57:22;;;;;;;21.90;3.85;;;7.90;99.90;;;;;;4901474;29;20482;-92
2023/01/13 07:59:48;;;;;;;28.65;4.50;;;7.90;99.90;;;;;;4880906;29;20044;-92
2023/01/13 08:02:13;;;;;;;24.55;4.10;;;7.90;99.90;;;;;;4882127;29;20104;-92
2023/01/13 08:04:40;;;;;;;24.00;3.92;;;7.90;99.90;;;;;;4883151;29;20371;-91
2023/01/13 08:07:05;;;;;;;23.35;3.97;;;7.80;99.90;;;;;;4880997;29;20485;-91
2023/01/13 08:09:31;;;;;;;23.67;4.05;;;7.90;99.90;;;;;;4892703;29;20044;-91
2023/01/13 08:14:43;;;;;;;26.45;3.97;;;7.90;99.90;;;;;;4903113;29;20199;-92
2023/01/13 08:17:09;;;;;;;27.48;4.40;;;7.90;99.90;;;;;;4916225;29;20048;-90
2023/01/13 08:19:35;;;;;;;25.55;4.15;;;7.90;99.90;;;;;;4891637;29;20044;-91
2023/01/13 08:22:00;;;;;;;23.70;4.53;;;7.90;99.90;;;;;;4916656;29;20051;-94
2023/01/13 08:24:26;;;;;;;28.65;4.22;;;7.90;99.90;;;;;;4921362;29;20726;-95
2023/01/13 08:26:52;;;;;;;29.48;4.28;;;7.90;99.90;;;;;;4905395;29;20055;-95
2023/01/13 08:29:17;;;;;;;23.33;3.92;;;7.90;99.90;;;;;;4911025;29;20055;-96
2023/01/13 08:31:43;;;;;;;26.05;4.18;;;7.90;99.90;;;;;;4903311;29;20558;-95
2023/01/13 08:34:09;;;;;;;28.65;4.95;;;7.90;99.90;;;;;;4885745;29;20173;-94
2023/01/13 08:36:34;;;;;;;30.05;4.30;;;7.90;99.90;;;;;;4886661;29;20139;-95
2023/01/13 08:39:00;;;;;;;27.98;4.90;;;7.90;99.90;;;;;;4904119;29;20036;-95
2023/01/13 08:44:09;;;;;;;21.67;4.57;;;7.90;99.90;;;;;;4920363;29;20463;-95
2023/01/13 08:46:35;;;;;;;25.67;4.72;;;7.90;99.90;;;;;;4903877;29;20048;-94
2023/01/13 08:49:01;;;;;;;30.98;5.15;;;7.90;99.90;;;;;;4909225;29;20044;-93
2023/01/13 08:51:27;;;;;;;30.48;4.75;;;7.90;99.90;;;;;;4908280;29;20052;-95
2023/01/13 08:53:52;;;;;;;30.75;5.28;;;7.90;99.90;;;;;;4904928;29;20050;-96
2023/01/13 08:56:18;;;;;;;25.27;4.32;;;7.90;99.90;;;;;;4915287;29;20047;-95
2023/01/13 08:58:44;;;;;;;27.55;4.30;;;7.90;99.90;;;;;;4886218;29;20521;-95
2023/01/13 09:01:14;;;;;;;28.90;4.90;;;7.90;99.90;;;;;;4885084;29;20052;-92
2023/01/13 09:03:40;;;;;;;28.05;4.63;;;8.00;99.90;;;;;;4900726;29;20059;-94
2023/01/13 09:06:06;;;;;;;26.60;4.47;;;8.00;99.90;;;;;;4884815;29;20045;-93
2023/01/13 09:08:32;;;;;;;26.10;4.40;;;7.90;99.90;;;;;;4901381;29;20497;-93
2023/01/13 09:10:57;;;;;;;28.02;4.90;;;8.00;99.90;;;;;;4900779;29;20041;-93
2023/01/13 09:13:23;;;;;;;29.00;5.03;;;8.00;99.90;;;;;;4901082;29;20119;-93
2023/01/13 09:15:51;;;;;;;28.67;5.13;;;8.00;99.90;;;;;;4884925;29;20044;-93
2023/01/13 09:18:16;;;;;;;34.88;4.97;;;8.00;99.90;;;;;;4899912;29;20549;-94
2023/01/13 09:20:43;;;;;;;27.17;4.53;;;8.10;99.90;;;;;;4900748;29;20076;-92
2023/01/13 09:23:09;;;;;;;30.88;5.10;;;8.10;99.90;;;;;;4899766;29;20040;-93
2023/01/13 09:25:35;;;;;;;25.73;4.68;;;8.10;99.90;;;;;;4883547;29;20516;-92
2023/01/13 09:28:03;;;;;;;29.05;4.70;;;8.00;99.90;;;;;;4900669;29;20049;-93
2023/01/13 09:30:29;;;;;;;31.33;4.70;;;8.10;99.90;;;;;;4883774;29;20112;-91
2023/01/13 09:34:58;;;;;;;28.80;5.03;;;8.00;99.90;;;;;;4883225;29;20053;-92
2023/01/13 09:35:43;;;;;;;27.25;4.45;;;8.10;99.90;;;;;;4900743;29;20052;-92
2023/01/13 09:38:08;;;;;;;31.77;4.43;;;8.00;99.90;;;;;;4899473;29;20128;-91
2023/01/13 09:40:38;;;;;;;33.40;5.22;;;8.00;99.90;;;;;;4883946;29;20048;-92
2023/01/13 09:49:22;;;;;;;35.65;5.28;;;8.00;99.90;;;;;;4883709;29;20052;-92
2023/01/13 09:51:53;;;;;;;35.15;4.82;;;8.00;99.90;;;;;;4883625;29;20080;-92
2023/01/13 09:54:40;;;;;;;33.13;4.82;;;8.00;99.90;;;;;;4882600;29;20044;-92
2023/01/13 09:57:14;;;;;;;38.15;4.82;;;8.00;99.90;;;;;;4900238;29;20052;-92
2023/01/13 09:59:40;;;;;;;29.90;4.93;;;8.00;99.90;;;;;;4882787;29;20096;-91
2023/01/13 10:02:15;;;;;;;29.33;4.53;;;8.00;99.90;;;;;;4883108;29;20053;-92
2023/01/13 10:04:40;;;;;;;28.08;4.50;;;8.00;99.90;;;;;;4883717;29;20056;-92
2023/01/13 10:07:12;;;;;;;30.95;4.45;;;8.00;99.90;;;;;;4899642;29;20049;-93
2023/01/13 10:09:44;;;;;;;39.28;5.45;;;8.00;99.90;;;;;;4900072;29;20040;-90
2023/01/13 10:15:03;;;;;;;30.27;5.03;;;8.00;99.90;;;;;;4899274;29;20121;-92
2023/01/13 10:18:06;;;;;;;32.95;4.65;;;8.00;99.90;;;;;;4899749;29;20069;-91
2023/01/13 10:20:59;;;;;;;26.10;4.05;;;8.00;99.90;;;;;;4913632;29;20048;-91
2023/01/13 10:23:56;;;;;;;25.98;4.57;;;8.00;99.90;;;;;;4900769;29;20052;-96
2023/01/13 10:26:48;;;;;;;25.75;4.50;;;8.00;99.90;;;;;;4897132;29;20488;-93
2023/01/13 10:33:10;;;;;;;28.85;4.40;;;8.00;99.90;;;;;;4918683;29;20092;-96
2023/01/13 10:36:34;;;;;;;30.77;4.47;;;8.00;99.90;;;;;;4917779;29;20044;-96
2023/01/13 10:39:14;;;;;;;27.55;4.78;;;8.00;99.90;;;;;;4821696;29;20085;-89
2023/01/13 10:41:40;;;;;;;32.03;4.10;;;8.00;99.90;;;;;;4806853;29;20050;-91
2023/01/13 10:44:15;;;;;;;25.85;4.13;;;8.00;99.90;;;;;;4875932;29;20440;-92
2023/01/13 10:46:55;;;;;;;29.63;4.57;;;8.10;99.90;;;;;;4883470;29;20044;-94
2023/01/13 10:49:30;;;;;;;23.77;4.13;;;8.10;99.90;;;;;;4898446;29;20481;-91
2023/01/13 10:51:56;;;;;;;25.58;4.07;;;8.10;99.90;;;;;;4900192;29;20071;-91
2023/01/13 10:54:24;;;;;;;28.20;4.28;;;8.10;99.90;;;;;;4910269;29;20474;-91
2023/01/13 10:57:26;;;;;;;30.25;4.45;;;8.10;99.90;;;;;;4913093;29;20474;-91
2023/01/13 10:59:52;;;;;;;26.35;4.15;;;8.10;99.90;;;;;;4882207;29;20045;-93
2023/01/13 11:02:27;;;;;;;22.42;4.00;;;8.10;99.90;;;;;;4892611;29;20121;-92
2023/01/13 11:04:52;;;;;;;28.38;4.25;;;8.10;99.90;;;;;;4902221;29;20135;-93
2023/01/13 11:07:49;;;;;;;20.52;3.60;;;8.10;99.90;;;;;;4918176;29;20131;-92
2023/01/13 11:10:29;;;;;;;22.33;3.90;;;8.10;99.90;;;;;;4917354;29;20087;-91
2023/01/13 11:13:15;;;;;;;21.38;3.40;;;8.10;99.90;;;;;;4905455;29;20052;-93
2023/01/13 11:16:00;;;;;;;28.17;4.35;;;8.10;99.90;;;;;;4909333;29;20096;-92
2023/01/13 11:19:10;;;;;;;24.17;4.20;;;8.10;99.90;;;;;;4911439;29;20092;-93
2023/01/13 11:22:10;;;;;;;27.23;4.43;;;8.20;99.90;;;;;;4905602;29;20497;-91
2023/01/13 11:24:41;;;;;;;25.63;4.35;;;8.20;99.90;;;;;;4897305;29;20044;-92
2023/01/13 11:27:25;;;;;;;21.42;3.25;;;8.20;99.90;;;;;;4908454;29;20048;-89
2023/01/13 11:30:46;;;;;;;24.33;4.18;;;8.20;99.90;;;;;;4902318;29;20051;-89
2023/01/13 11:33:15;;;;;;;23.85;4.22;;;8.20;99.90;;;;;;4857806;29;20063;-90
2023/01/13 11:35:43;;;;;;;24.40;3.70;;;8.20;99.90;;;;;;4911033;29;20509;-90
2023/01/13 11:38:17;;;;;;;18.52;3.35;;;8.20;99.90;;;;;;4915616;29;20524;-88
2023/01/13 11:40:47;;;;;;;19.17;2.78;;;8.20;99.90;;;;;;4882059;29;20131;-91
2023/01/13 11:43:21;;;;;;;24.92;3.72;;;8.30;99.90;;;;;;4888973;29;20456;-92
2023/01/13 11:45:55;;;;;;;21.77;3.22;;;8.30;99.90;;;;;;4892086;29;20056;-91
2023/01/13 11:48:25;;;;;;;23.65;3.50;;;8.30;99.90;;;;;;4905625;29;20103;-92
2023/01/13 11:50:54;;;;;;;26.33;3.83;;;8.40;99.90;;;;;;4894851;29;20138;-92
2023/01/13 11:53:26;;;;;;;23.77;3.92;;;8.30;99.90;;;;;;4911288;29;20135;-92
2023/01/13 11:56:06;;;;;;;21.15;3.88;;;8.30;99.90;;;;;;4913170;29;20075;-91
2023/01/13 11:58:38;;;;;;;21.08;3.90;;;8.40;99.90;;;;;;4896740;29;20059;-92
2023/01/13 12:01:26;;;;;;;25.38;3.83;;;8.40;99.90;;;;;;4911919;29;20053;-92
2023/01/13 12:04:29;;;;;;;23.20;3.83;;;8.40;99.90;;;;;;4909908;29;20036;-92
2023/01/13 12:07:18;;;;;;;23.85;4.03;;;8.40;99.90;;;;;;4896171;29;20390;-94
2023/01/13 12:10:07;;;;;;;21.50;3.83;;;8.40;99.90;;;;;;4903288;29;20051;-92
2023/01/13 12:12:54;;;;;;;19.60;4.20;;;8.40;99.90;;;;;;4890634;29;20128;-92
2023/01/13 12:15:21;;;;;;;22.23;3.80;;;8.40;99.90;;;;;;4906375;29;20072;-92
2023/01/13 12:18:13;;;;;;;21.92;3.20;;;8.40;99.90;;;;;;4890896;29;20481;-92
2023/01/13 12:20:54;;;;;;;22.85;4.00;;;8.50;99.90;;;;;;4899632;29;20044;-92
2023/01/13 12:23:50;;;;;;;20.67;3.00;;;8.50;99.90;;;;;;4909525;29;20041;-91
2023/01/13 12:26:16;;;;;;;18.42;3.00;;;8.50;99.90;;;;;;4867373;29;20063;-91
2023/01/13 12:28:50;;;;;;;19.50;2.88;;;8.50;99.90;;;;;;4907059;29;20036;-92
2023/01/13 12:31:18;;;;;;;15.63;2.88;;;8.60;99.90;;;;;;4895663;29;20044;-90
2023/01/13 12:33:48;;;;;;;21.02;3.00;;;8.50;99.90;;;;;;4886288;29;20045;-92
2023/01/13 12:36:23;;;;;;;15.95;2.83;;;8.60;99.90;;;;;;4904343;29;20052;-92
2023/01/13 12:39:11;;;;;;;15.40;3.10;;;8.60;99.90;;;;;;4908708;29;20044;-89
2023/01/13 12:44:15;;;;;;;19.30;2.90;;;8.60;99.90;;;;;;4890344;29;20051;-90
2023/01/13 12:44:29;;;;;;;23.25;3.17;;;8.60;99.90;;;;;;4903692;29;20121;-91
2023/01/13 12:46:56;;;;;;;15.43;3.08;;;8.60;99.90;;;;;;4906428;29;20053;-91
2023/01/13 12:49:25;;;;;;;12.10;2.78;;;8.70;99.90;;;;;;4890190;29;20044;-92
2023/01/13 12:51:50;;;;;;;19.55;3.22;;;8.70;99.90;;;;;;4895352;29;20067;-90
2023/01/13 12:54:42;;;;;;;16.35;2.72;;;8.70;99.90;;;;;;4891420;29;20075;-93
2023/01/13 12:57:25;;;;;;;19.02;3.17;;;8.70;99.90;;;;;;4892426;29;20061;-92
2023/01/13 13:00:02;;;;;;;14.95;2.70;;;8.70;99.90;;;;;;4906023;29;20036;-90
2023/01/13 13:02:31;;;;;;;19.30;2.90;;;8.70;99.90;;;;;;4900792;29;20052;-92
2023/01/13 13:05:18;;;;;;;16.30;3.05;;;8.70;99.90;;;;;;4901368;29;20045;-91
2023/01/13 13:07:51;;;;;;;17.45;3.35;;;8.70;99.90;;;;;;4897633;29;20044;-90
2023/01/13 13:10:27;;;;;;;16.70;2.87;;;8.70;99.90;;;;;;4903348;29;20068;-91
2023/01/13 13:13:17;;;;;;;17.02;2.78;;;8.80;99.90;;;;;;4905392;29;20304;-92
2023/01/13 13:15:44;;;;;;;15.10;2.60;;;8.70;99.90;;;;;;4875525;29;20057;-91
2023/01/13 13:18:16;;;;;;;19.58;2.90;;;8.80;99.90;;;;;;4901324;29;20036;-91
2023/01/13 13:20:56;;;;;;;16.40;2.30;;;8.70;99.90;;;;;;4895798;29;20401;-92
2023/01/13 13:23:52;;;;;;;15.60;2.65;;;8.80;99.90;;;;;;4914487;29;20044;-90
2023/01/13 13:26:20;;;;;;;16.10;4.05;;;8.80;99.90;;;;;;4894385;29;20057;-91
2023/01/13 13:29:19;;;;;;;24.80;5.32;;;8.80;99.90;;;;;;4884171;29;20148;-92
2023/01/13 13:32:08;;;;;;;19.27;4.13;;;8.80;99.90;;;;;;4902368;29;20073;-91
2023/01/13 13:34:58;;;;;;;18.05;5.47;;;8.80;99.90;;;;;;4884237;29;20044;-91
2023/01/13 13:49:10;;;;;;;19.38;3.22;;;8.90;99.90;;;;;;4914571;29;20047;-92
2023/01/13 13:51:41;;;;;;;15.75;2.83;;;8.80;99.90;;;;;;4917204;29;20080;-91
2023/01/13 13:54:16;;;;;;;18.70;2.72;;;8.90;99.90;;;;;;4893455;29;20045;-91
2023/01/13 13:56:44;;;;;;;13.90;2.72;;;8.90;99.90;;;;;;4907313;29;20040;-91
2023/01/13 13:59:13;;;;;;;20.10;2.38;;;8.90;99.90;;;;;;4916301;29;20071;-91
2023/01/13 14:01:42;;;;;;;15.15;2.75;;;8.80;99.90;;;;;;4912674;29;20104;-91
2023/01/13 14:04:18;;;;;;;19.95;4.80;;;8.90;99.90;;;;;;4913552;29;20044;-91
2023/01/13 14:06:54;;;;;;;25.23;8.65;;;8.90;99.90;;;;;;4897903;29;20040;-92
2023/01/13 14:09:22;;;;;;;19.45;4.97;;;8.90;99.90;;;;;;4898651;29;20079;-91
2023/01/13 14:11:57;;;;;;;26.98;9.90;;;8.90;99.90;;;;;;4902718;29;20044;-90
2023/01/13 14:14:23;;;;;;;22.13;5.72;;;8.90;99.90;;;;;;4899226;29;20139;-91
2023/01/13 14:16:50;;;;;;;15.90;3.20;;;8.90;99.90;;;;;;4913870;29;20119;-90